Terminal Aerodrome Forecast
Issued by NWS

Home | Current Version | Previous Version | Text Only | Print | Product List | Glossary On
Versions: 1 2 3 4 5 6 7 8 9 10 11 12 13 14 15 16 17 18 19 20 21 22 23 24 25 26 27 28 29 30 31 32 33 34 35 36 37 38 39 40 41
000
FTAK31 PAFA 232340
TAFAOM
TAF
PAOM 232340Z 2400/2424 12018KT 1/2SM SN FZFG OVC004
     FM240300 17020G30KT 1/2SM SN BLSN FZFG BKN005 OVC010
     FM240600 17020KT 1 1/2SM -SN BLSN BR BKN005 OVC010
     FM242100 18015KT 1 1/2SM -SHSN BR OVC007=

USA.gov is the U.S. government's official web portal to all federal, state and local government web resources and services.